Time;durP1;ratioP1;P1;durP2;ratioP2;P2;SDS_P1;SDS_P2;PMS_P1;PMS_P2;Temp;Humidity;BMP_temperature;BMP_pressure;BME280_temperature;BME280_humidity;BME280_pressure;Samples;Min_cycle;Max_cycle;Signal;HPM_P1;HPM_P2
2022/11/19 00:02:18;;;;;;;18.47;10.73;;;;;;;-2.94;100.00;100843.09;4983005;28;20266;-54
2022/11/19 00:04:45;;;;;;;14.33;9.23;;;;;;;-2.94;100.00;100840.53;4979080;28;20335;-54
2022/11/19 00:07:11;;;;;;;15.20;10.07;;;;;;;-2.93;100.00;100844.88;4981587;28;20355;-54
2022/11/19 00:09:38;;;;;;;19.77;10.43;;;;;;;-2.91;100.00;100840.72;4977774;28;20324;-54
2022/11/19 00:14:51;;;;;;;17.03;11.13;;;;;;;-2.80;100.00;100846.44;4981585;28;20246;-54
2022/11/19 00:17:17;;;;;;;16.07;11.20;;;;;;;-2.81;100.00;100841.19;4977468;28;20256;-55
2022/11/19 00:19:44;;;;;;;14.93;11.17;;;;;;;-2.85;100.00;100841.84;4981039;28;20264;-55
2022/11/19 00:22:11;;;;;;;16.77;11.53;;;;;;;-2.85;100.00;100844.41;4979914;28;20676;-56
2022/11/19 00:24:38;;;;;;;19.47;14.90;;;;;;;-2.85;100.00;100852.09;4981703;28;20235;-54
2022/11/19 00:27:05;;;;;;;16.53;12.73;;;;;;;-2.86;100.00;100850.34;4972190;28;20278;-55
2022/11/19 00:29:31;;;;;;;19.07;12.47;;;;;;;-2.84;100.00;100853.88;4981052;28;20739;-55
2022/11/19 00:31:59;;;;;;;14.13;11.53;;;;;;;-2.83;100.00;100856.53;4980805;28;20333;-57
2022/11/19 00:34:26;;;;;;;19.77;12.97;;;;;;;-2.84;100.00;100848.72;4975430;28;20470;-56
2022/11/19 00:36:52;;;;;;;21.63;13.67;;;;;;;-2.82;100.00;100855.72;4977023;28;20243;-54
2022/11/19 00:39:19;;;;;;;19.63;11.93;;;;;;;-2.81;100.00;100854.03;4975009;28;20240;-55
2022/11/19 00:41:46;;;;;;;17.60;11.40;;;;;;;-2.85;100.00;100857.25;4974121;28;20965;-55
2022/11/19 00:44:12;;;;;;;20.57;12.80;;;;;;;-2.85;100.00;100857.25;4977492;28;20344;-56
2022/11/19 00:46:39;;;;;;;18.60;13.30;;;;;;;-2.84;100.00;100856.44;4978898;28;20237;-54
2022/11/19 00:49:07;;;;;;;17.43;11.67;;;;;;;-2.84;100.00;100864.13;4981639;28;20673;-54
2022/11/19 00:51:33;;;;;;;15.87;11.97;;;;;;;-2.82;100.00;100863.44;4980149;28;20261;-54
2022/11/19 00:54:00;;;;;;;17.40;12.60;;;;;;;-2.81;100.00;100867.75;4973500;28;20324;-54
2022/11/19 00:56:27;;;;;;;15.80;11.20;;;;;;;-2.80;100.00;100863.53;4986769;28;20379;-54
2022/11/19 00:58:54;;;;;;;17.00;10.93;;;;;;;-2.81;100.00;100869.44;4981461;28;20331;-53
2022/11/19 01:01:23;;;;;;;14.97;12.30;;;;;;;-2.73;100.00;100868.22;4984190;28;20316;-54
2022/11/19 01:03:50;;;;;;;20.60;11.53;;;;;;;-2.75;100.00;100875.81;4978817;28;20323;-56
2022/11/19 01:06:19;;;;;;;14.97;11.47;;;;;;;-2.76;100.00;100871.47;4980818;28;20259;-54
2022/11/19 01:08:46;;;;;;;16.10;11.87;;;;;;;-2.79;100.00;100870.44;4975015;28;20275;-56
2022/11/19 01:11:14;;;;;;;16.33;11.77;;;;;;;-2.81;100.00;100879.72;4972213;28;20320;-56
2022/11/19 01:13:41;;;;;;;15.40;11.20;;;;;;;-2.84;100.00;100880.47;4976710;28;20767;-56
2022/11/19 01:16:10;;;;;;;19.27;13.03;;;;;;;-2.82;100.00;100878.84;4985697;28;20727;-55
2022/11/19 01:18:38;;;;;;;16.73;13.00;;;;;;;-2.84;100.00;100880.47;4976265;28;20244;-56
2022/11/19 01:21:06;;;;;;;14.73;12.07;;;;;;;-2.86;100.00;100878.59;4977145;28;20965;-53
2022/11/19 01:23:34;;;;;;;17.87;13.27;;;;;;;-2.89;100.00;100876.75;4968304;28;20315;-57
2022/11/19 01:26:01;;;;;;;17.20;12.77;;;;;;;-2.88;100.00;100876.84;4977416;28;20244;-55
2022/11/19 01:28:28;;;;;;;14.83;11.47;;;;;;;-2.86;100.00;100871.78;4984275;28;20262;-53
2022/11/19 01:30:54;;;;;;;14.90;10.73;;;;;;;-2.86;100.00;100870.91;4978173;28;20242;-54
2022/11/19 01:33:21;;;;;;;19.17;12.43;;;;;;;-2.90;100.00;100875.88;4983679;28;20340;-55
2022/11/19 01:35:55;;;;;;;15.80;11.33;;;;;;;-2.91;100.00;100874.09;4977399;28;20275;-55
2022/11/19 01:38:22;;;;;;;13.77;11.03;;;;;;;-2.90;100.00;100880.13;4974323;28;20261;-55
2022/11/19 01:40:50;;;;;;;13.10;10.43;;;;;;;-2.91;100.00;100883.50;4979184;28;21526;-55
2022/11/19 01:43:17;;;;;;;14.00;11.33;;;;;;;-2.97;100.00;100884.03;4983504;28;20323;-56
2022/11/19 01:45:44;;;;;;;12.63;10.33;;;;;;;-2.96;100.00;100882.34;4983634;28;20259;-55
2022/11/19 01:48:15;;;;;;;13.47;10.50;;;;;;;-2.99;100.00;100884.75;4976852;28;20267;-54
2022/11/19 01:50:45;;;;;;;12.03;10.30;;;;;;;-3.03;100.00;100878.53;4984014;28;20254;-55
2022/11/19 01:53:13;;;;;;;15.93;10.77;;;;;;;-3.05;100.00;100881.81;4981638;28;20251;-55
2022/11/19 01:55:41;;;;;;;15.37;10.93;;;;;;;-3.05;100.00;100877.59;4981563;28;20945;-55
2022/11/19 01:58:12;;;;;;;14.30;10.80;;;;;;;-3.08;100.00;100880.00;4980204;28;20270;-55
2022/11/19 02:00:38;;;;;;;15.27;11.47;;;;;;;-3.07;100.00;100886.88;4971677;28;20239;-55
2022/11/19 02:03:05;;;;;;;17.27;10.13;;;;;;;-3.13;100.00;100891.66;4978589;28;20242;-55
2022/11/19 02:05:32;;;;;;;14.47;10.50;;;;;;;-3.18;100.00;100888.84;4984858;28;20323;-55
2022/11/19 02:07:58;;;;;;;17.03;11.10;;;;;;;-3.26;100.00;100900.38;4977895;28;20236;-54
2022/11/19 02:10:30;;;;;;;11.50;10.30;;;;;;;-3.23;100.00;100904.78;4977607;28;20610;-54
2022/11/19 02:13:04;;;;;;;14.73;11.20;;;;;;;-3.26;100.00;100909.78;4980579;28;20236;-55
2022/11/19 02:15:39;;;;;;;12.23;10.43;;;;;;;-3.23;100.00;100905.69;4979646;28;20260;-55
2022/11/19 02:18:14;;;;;;;13.27;10.67;;;;;;;-3.27;100.00;100907.97;4973796;28;20280;-54
2022/11/19 02:20:46;;;;;;;13.70;11.20;;;;;;;-3.32;100.00;100909.41;4975577;28;20271;-55
2022/11/19 02:23:42;;;;;;;10.93;9.77;;;;;;;-3.35;100.00;100907.53;4979038;28;20237;-56
2022/11/19 02:26:46;;;;;;;14.03;11.27;;;;;;;-3.37;100.00;100899.78;4976361;28;20762;-55
2022/11/19 02:29:22;;;;;;;12.47;9.87;;;;;;;-3.42;100.00;100890.91;4972109;28;20252;-55
2022/11/19 02:31:54;;;;;;;10.00;8.97;;;;;;;-3.41;100.00;100892.66;4982605;28;20268;-55
2022/11/19 02:34:24;;;;;;;14.70;11.53;;;;;;;-3.45;100.00;100900.13;4974836;28;20247;-54
2022/11/19 02:36:58;;;;;;;14.53;10.30;;;;;;;-3.50;100.00;100884.47;4980100;28;20908;-55
2022/11/19 02:39:26;;;;;;;14.10;9.80;;;;;;;-3.52;100.00;100880.91;4981864;28;20721;-55
2022/11/19 02:41:59;;;;;;;11.80;9.53;;;;;;;-3.54;100.00;100882.53;4981469;28;20260;-54
2022/11/19 02:47:18;;;;;;;10.97;9.17;;;;;;;-3.54;100.00;100881.63;4984817;28;20243;-55
2022/11/19 02:49:45;;;;;;;13.00;10.07;;;;;;;-3.52;100.00;100882.59;4982570;28;20236;-55
2022/11/19 02:52:12;;;;;;;11.93;10.00;;;;;;;-3.49;100.00;100885.34;4981003;28;20371;-54
2022/11/19 02:54:38;;;;;;;14.13;10.47;;;;;;;-3.48;100.00;100887.09;4972707;28;20797;-54
2022/11/19 02:57:05;;;;;;;13.50;9.60;;;;;;;-3.47;100.00;100894.03;4978043;28;20250;-56
2022/11/19 03:05:09;;;;;;;13.77;9.60;;;;;;;-3.36;100.00;100893.84;4977365;28;20259;-55
2022/11/19 03:07:36;;;;;;;13.30;8.53;;;;;;;-3.33;100.00;100892.22;4970182;28;20302;-54
2022/11/19 03:10:06;;;;;;;14.03;9.93;;;;;;;-3.37;100.00;100892.06;4975105;28;20246;-54
2022/11/19 03:12:39;;;;;;;12.00;9.03;;;;;;;-3.36;100.00;100885.25;4975677;28;20673;-54
2022/11/19 03:18:04;;;;;;;11.50;8.43;;;;;;;-3.35;100.00;100889.56;4977159;28;20308;-55
2022/11/19 03:20:33;;;;;;;12.30;9.23;;;;;;;-3.38;100.00;100892.84;4980719;28;20790;-55
2022/11/19 03:23:04;;;;;;;10.83;7.93;;;;;;;-3.36;100.00;100893.84;4973840;28;20788;-63
2022/11/19 03:25:34;;;;;;;14.53;9.83;;;;;;;-3.34;100.00;100895.59;4967916;28;20237;-55
2022/11/19 03:28:04;;;;;;;10.93;9.20;;;;;;;-3.33;100.00;100897.34;4973360;28;20331;-60
2022/11/19 03:30:32;;;;;;;12.00;9.20;;;;;;;-3.33;100.00;100893.13;4975439;28;20236;-57
2022/11/19 03:33:03;;;;;;;13.93;10.73;;;;;;;-3.32;100.00;100888.88;4975177;28;20243;-55
2022/11/19 03:35:32;;;;;;;11.87;9.17;;;;;;;-3.34;100.00;100896.47;4976328;28;20298;-55
2022/11/19 03:38:04;;;;;;;14.67;10.00;;;;;;;-3.39;100.00;100893.66;4979237;28;20327;-55
2022/11/19 03:40:31;;;;;;;9.67;7.97;;;;;;;-3.39;100.00;100909.06;4976705;28;20233;-55
2022/11/19 03:42:59;;;;;;;12.67;9.67;;;;;;;-3.39;100.00;100905.59;4975159;28;20669;-56
2022/11/19 03:45:29;;;;;;;12.47;8.93;;;;;;;-3.42;100.00;100914.00;4981036;28;20231;-54
2022/11/19 03:47:57;;;;;;;13.10;9.30;;;;;;;-3.39;100.00;100909.06;4976549;28;20315;-56
2022/11/19 03:50:33;;;;;;;13.40;9.53;;;;;;;-3.37;100.00;100911.69;4978167;28;20244;-55
2022/11/19 03:53:00;;;;;;;13.07;8.90;;;;;;;-3.40;100.00;100909.84;4977466;28;20737;-55
2022/11/19 03:55:32;;;;;;;11.67;8.43;;;;;;;-3.34;100.00;100918.69;4969904;28;20243;-56
2022/11/19 03:58:03;;;;;;;12.37;9.10;;;;;;;-3.34;100.00;100911.00;4980521;28;20294;-54
2022/11/19 04:00:29;;;;;;;9.83;7.43;;;;;;;-3.32;100.00;100919.69;4981040;28;20286;-55
2022/11/19 04:02:57;;;;;;;10.57;7.17;;;;;;;-3.30;100.00;100918.06;4980889;28;20267;-55
2022/11/19 04:05:25;;;;;;;10.67;7.67;;;;;;;-3.29;100.00;100915.59;4970468;28;20235;-55
2022/11/19 04:07:52;;;;;;;10.37;7.03;;;;;;;-3.29;100.00;100918.19;4973113;28;20282;-56
2022/11/19 04:10:19;;;;;;;9.13;6.83;;;;;;;-3.30;100.00;100920.63;4975982;28;20235;-54
2022/11/19 04:12:46;;;;;;;10.80;8.07;;;;;;;-3.27;100.00;100923.38;4975111;28;20235;-55
2022/11/19 04:15:13;;;;;;;10.83;7.93;;;;;;;-3.31;100.00;100922.31;4979161;28;20290;-59
2022/11/19 04:17:41;;;;;;;9.83;8.40;;;;;;;-3.30;100.00;100918.06;4978875;28;20245;-55
2022/11/19 04:20:09;;;;;;;12.30;7.67;;;;;;;-3.26;100.00;100920.03;4978718;28;20236;-54
2022/11/19 04:22:38;;;;;;;13.50;8.10;;;;;;;-3.27;100.00;100919.13;4982627;28;20239;-54
2022/11/19 04:25:06;;;;;;;11.87;8.43;;;;;;;-3.25;100.00;100914.09;4981271;28;20234;-55
2022/11/19 04:27:33;;;;;;;12.63;8.13;;;;;;;-3.24;100.00;100918.44;4974529;28;20248;-56
2022/11/19 04:30:00;;;;;;;9.73;7.03;;;;;;;-3.29;100.00;100914.72;4978659;28;20243;-54
2022/11/19 04:32:27;;;;;;;10.77;7.43;;;;;;;-3.34;100.00;100913.56;4979934;28;20236;-55
2022/11/19 04:34:54;;;;;;;9.23;7.50;;;;;;;-3.40;100.00;100917.56;4984025;28;20241;-55
2022/11/19 04:37:21;;;;;;;13.37;7.90;;;;;;;-3.40;100.00;100915.00;4981711;28;20338;-56
2022/11/19 04:39:49;;;;;;;11.47;8.53;;;;;;;-3.37;100.00;100915.19;4984635;28;20251;-55
2022/11/19 04:42:16;;;;;;;12.13;9.23;;;;;;;-3.37;100.00;100922.88;4982571;28;20233;-55
2022/11/19 04:44:43;;;;;;;12.03;8.90;;;;;;;-3.41;100.00;100914.88;4978228;28;20622;-55
2022/11/19 04:47:10;;;;;;;12.50;8.43;;;;;;;-3.39;100.00;100909.06;4984188;28;20259;-54
2022/11/19 04:49:37;;;;;;;15.83;9.07;;;;;;;-3.36;100.00;100909.22;4985194;28;20240;-54
2022/11/19 04:52:04;;;;;;;11.40;9.13;;;;;;;-3.36;100.00;100914.38;4979747;28;20331;-55
2022/11/19 04:54:34;;;;;;;14.33;9.40;;;;;;;-3.35;100.00;100902.41;4985058;28;20315;-54
2022/11/19 04:57:03;;;;;;;14.33;9.07;;;;;;;-3.39;100.00;100903.03;4982514;28;20339;-55
2022/11/19 04:59:30;;;;;;;14.10;9.77;;;;;;;-3.43;100.00;100901.97;4980728;28;20233;-55
2022/11/19 05:01:57;;;;;;;13.47;10.07;;;;;;;-3.45;100.00;100901.00;4981130;28;20668;-55
2022/11/19 05:04:24;;;;;;;14.00;9.80;;;;;;;-3.44;100.00;100897.66;4986405;28;20328;-55
2022/11/19 05:06:51;;;;;;;11.60;9.67;;;;;;;-3.48;100.00;100898.25;4986049;28;20247;-55
2022/11/19 05:09:18;;;;;;;15.27;9.40;;;;;;;-3.48;100.00;100892.22;4984277;28;20259;-55
2022/11/19 05:11:45;;;;;;;12.27;9.57;;;;;;;-3.50;100.00;100898.97;4980175;28;20259;-55
2022/11/19 05:14:13;;;;;;;12.53;10.13;;;;;;;-3.49;100.00;100895.59;4978549;28;20229;-54
2022/11/19 05:16:40;;;;;;;12.93;10.77;;;;;;;-3.50;100.00;100893.84;4972229;28;20315;-54
2022/11/19 05:19:06;;;;;;;11.83;9.03;;;;;;;-3.50;100.00;100899.84;4975017;28;20661;-54
2022/11/19 05:21:33;;;;;;;11.67;8.40;;;;;;;-3.48;100.00;100893.09;4978995;28;20238;-56
2022/11/19 05:23:59;;;;;;;12.77;8.90;;;;;;;-3.49;100.00;100886.22;4983264;28;20245;-54
2022/11/19 05:26:27;;;;;;;10.77;8.60;;;;;;;-3.42;100.00;100887.47;4983827;28;20430;-54
2022/11/19 05:28:54;;;;;;;11.67;9.27;;;;;;;-3.43;100.00;100881.44;4975017;28;20232;-55
2022/11/19 05:31:22;;;;;;;13.70;9.90;;;;;;;-3.40;100.00;100880.75;4979179;28;21095;-55
2022/11/19 05:33:50;;;;;;;13.10;9.53;;;;;;;-3.44;100.00;100883.91;4975164;28;20715;-55
2022/11/19 05:36:17;;;;;;;11.93;10.00;;;;;;;-3.40;100.00;100883.31;4983254;28;20236;-55
2022/11/19 05:38:43;;;;;;;12.27;9.47;;;;;;;-3.38;100.00;100890.28;4986840;28;20246;-56
2022/11/19 05:41:10;;;;;;;13.03;10.10;;;;;;;-3.29;100.00;100889.06;4981893;28;20349;-55
2022/11/19 05:43:38;;;;;;;11.23;9.27;;;;;;;-3.23;100.00;100882.59;4985398;28;20283;-54
2022/11/19 05:46:05;;;;;;;9.87;8.83;;;;;;;-3.25;100.00;100875.59;4985775;28;20244;-58
2022/11/19 05:48:34;;;;;;;15.33;9.60;;;;;;;-3.30;100.00;100882.13;4987336;28;20241;-56
2022/11/19 05:51:01;;;;;;;9.17;8.27;;;;;;;-3.27;100.00;100866.91;4982628;28;20292;-55
2022/11/19 05:53:28;;;;;;;13.37;8.43;;;;;;;-3.30;100.00;100877.91;4980351;28;20242;-54
2022/11/19 05:55:55;;;;;;;11.23;9.03;;;;;;;-3.34;100.00;100881.06;4975453;28;20253;-56
2022/11/19 05:58:22;;;;;;;13.77;9.70;;;;;;;-3.34;100.00;100880.19;4978935;28;20240;-55
2022/11/19 06:00:54;;;;;;;12.00;8.13;;;;;;;-3.33;100.00;100882.88;4979006;28;20240;-55
2022/11/19 06:03:21;;;;;;;11.40;8.80;;;;;;;-3.36;100.00;100887.81;4979812;28;20240;-55
2022/11/19 06:05:49;;;;;;;12.10;8.80;;;;;;;-3.37;100.00;100886.94;4979205;28;20240;-55
2022/11/19 06:08:16;;;;;;;10.67;8.33;;;;;;;-3.41;100.00;100887.53;4980545;28;21167;-57
2022/11/19 06:10:44;;;;;;;11.30;8.33;;;;;;;-3.42;100.00;100888.34;4981365;28;20263;-54
2022/11/19 06:13:11;;;;;;;11.80;8.10;;;;;;;-3.44;100.00;100884.81;4980433;28;20228;-56
2022/11/19 06:15:38;;;;;;;9.53;7.73;;;;;;;-3.45;100.00;100893.28;4982358;28;20275;-54
2022/11/19 06:18:05;;;;;;;11.67;7.60;;;;;;;-3.45;100.00;100893.28;4981237;28;20228;-56
2022/11/19 06:20:32;;;;;;;10.37;7.47;;;;;;;-3.47;100.00;100897.47;4980956;28;20246;-55
2022/11/19 06:23:01;;;;;;;9.47;8.10;;;;;;;-3.47;100.00;100894.91;4973861;28;20257;-54
2022/11/19 06:25:28;;;;;;;8.33;7.43;;;;;;;-3.46;100.00;100891.53;4977609;28;20263;-54
2022/11/19 06:27:55;;;;;;;8.17;6.90;;;;;;;-3.46;100.00;100885.53;4979946;28;20244;-55
2022/11/19 06:30:22;;;;;;;8.37;7.57;;;;;;;-3.47;100.00;100892.34;4973144;28;20746;-55
2022/11/19 06:32:49;;;;;;;8.83;7.50;;;;;;;-3.45;100.00;100898.44;4977347;28;20261;-54
2022/11/19 06:35:17;;;;;;;8.13;6.47;;;;;;;-3.47;100.00;100897.47;4970920;28;20307;-54
2022/11/19 06:37:44;;;;;;;7.83;7.00;;;;;;;-3.50;100.00;100894.72;4975800;28;20238;-55
2022/11/19 06:40:14;;;;;;;8.03;6.80;;;;;;;-3.46;100.00;100895.78;4979259;28;20230;-55
2022/11/19 06:42:41;;;;;;;9.27;7.00;;;;;;;-3.53;100.00;100889.41;4983374;28;20286;-56
2022/11/19 06:45:11;;;;;;;11.17;7.23;;;;;;;-3.49;100.00;100886.22;4982940;28;20294;-55
2022/11/19 06:47:39;;;;;;;9.53;7.27;;;;;;;-3.49;100.00;100882.78;4981929;28;20240;-55
2022/11/19 06:50:07;;;;;;;9.70;7.37;;;;;;;-3.45;100.00;100892.41;4977337;28;20769;-55
2022/11/19 06:52:34;;;;;;;9.80;7.43;;;;;;;-3.43;100.00;100889.16;4982434;28;20742;-54
2022/11/19 06:55:02;;;;;;;8.83;7.33;;;;;;;-3.48;100.00;100887.97;4977600;28;20326;-54
2022/11/19 06:57:30;;;;;;;8.03;6.07;;;;;;;-3.45;100.00;100890.72;4982056;28;20691;-55
2022/11/19 06:59:57;;;;;;;7.50;6.60;;;;;;;-3.38;100.00;100890.28;4973095;28;20754;-55
2022/11/19 07:02:24;;;;;;;8.17;6.57;;;;;;;-3.42;100.00;100888.34;4977978;28;20308;-54
2022/11/19 07:04:51;;;;;;;7.93;5.83;;;;;;;-3.45;100.00;100888.16;4982466;28;20228;-55
2022/11/19 07:07:19;;;;;;;10.37;6.10;;;;;;;-3.42;100.00;100893.47;4978768;28;20299;-55
2022/11/19 07:09:46;;;;;;;7.03;5.97;;;;;;;-3.39;100.00;100897.91;4978254;28;20281;-55
2022/11/19 07:12:13;;;;;;;8.50;5.87;;;;;;;-3.32;100.00;100900.03;4978415;28;20261;-55
2022/11/19 07:14:42;;;;;;;7.97;6.30;;;;;;;-3.40;100.00;100907.28;4980452;28;20586;-56
2022/11/19 07:17:09;;;;;;;8.53;5.93;;;;;;;-3.29;100.00;100907.03;4980656;28;20645;-55
2022/11/19 07:19:36;;;;;;;8.27;6.53;;;;;;;-3.29;100.00;100901.88;4979438;28;20271;-55
2022/11/19 07:22:03;;;;;;;8.63;5.93;;;;;;;-3.26;100.00;100891.81;4981788;28;21005;-55
2022/11/19 07:24:30;;;;;;;7.30;5.20;;;;;;;-3.23;100.00;100895.44;4981771;28;20228;-56
2022/11/19 07:26:57;;;;;;;6.63;5.47;;;;;;;-3.16;99.77;100891.50;4980733;28;20696;-55
2022/11/19 07:29:24;;;;;;;7.20;5.20;;;;;;;-3.17;99.58;100880.34;4977271;28;20233;-58
2022/11/19 07:31:52;;;;;;;7.10;5.83;;;;;;;-3.26;100.00;100884.09;4978576;28;20244;-55
2022/11/19 07:34:20;;;;;;;6.30;5.47;;;;;;;-3.16;99.94;100882.13;4976144;28;20220;-55
2022/11/19 07:36:48;;;;;;;8.77;6.00;;;;;;;-3.07;100.00;100886.88;4969813;28;20838;-56
2022/11/19 07:39:15;;;;;;;7.97;5.77;;;;;;;-3.00;100.00;100893.25;4980381;28;20244;-55
2022/11/19 07:44:27;;;;;;;6.93;5.70;;;;;;;-2.72;100.00;100895.66;4971872;28;20867;-55
2022/11/19 07:46:56;;;;;;;7.47;5.57;;;;;;;-2.63;99.59;100896.19;4978054;28;20252;-55
2022/11/19 07:49:23;;;;;;;6.53;5.70;;;;;;;-2.51;99.21;100895.94;4979680;28;20232;-55
2022/11/19 07:51:50;;;;;;;5.73;5.13;;;;;;;-2.42;97.60;100896.44;4980244;28;20319;-56
2022/11/19 07:54:17;;;;;;;6.73;5.43;;;;;;;-2.28;97.37;100889.44;4981430;28;20228;-55
2022/11/19 07:56:45;;;;;;;5.60;5.00;;;;;;;-2.19;97.63;100892.50;4980472;28;20287;-54
2022/11/19 07:59:12;;;;;;;9.70;5.77;;;;;;;-2.16;96.46;100890.97;4980750;28;21141;-55
2022/11/19 08:01:39;;;;;;;7.40;5.47;;;;;;;-2.11;96.64;100887.75;4978629;28;20821;-55
2022/11/19 08:04:08;;;;;;;7.30;4.77;;;;;;;-2.05;96.72;100883.81;4978270;28;20754;-56
2022/11/19 08:06:35;;;;;;;5.23;4.60;;;;;;;-1.97;96.33;100887.66;4970684;28;20240;-58
2022/11/19 08:09:03;;;;;;;6.13;4.57;;;;;;;-1.89;95.67;100876.91;4975974;28;20244;-55
2022/11/19 08:11:31;;;;;;;5.90;4.90;;;;;;;-1.86;94.85;100875.38;4976748;28;20228;-55
2022/11/19 08:13:59;;;;;;;6.60;5.40;;;;;;;-1.89;94.54;100872.66;4982594;28;20323;-55
2022/11/19 08:19:16;;;;;;;6.53;4.60;;;;;;;-1.82;95.29;100860.97;4977828;28;20286;-55
2022/11/19 08:21:44;;;;;;;5.60;5.00;;;;;;;-1.72;94.76;100858.03;4977597;28;20236;-55
2022/11/19 08:24:12;;;;;;;7.07;5.10;;;;;;;-1.68;95.04;100857.41;4980063;28;20658;-56
2022/11/19 08:26:39;;;;;;;8.87;5.37;;;;;;;-1.62;94.06;100854.22;4979872;28;20266;-55
2022/11/19 08:29:07;;;;;;;7.33;4.50;;;;;;;-1.55;94.07;100852.03;4975949;28;20816;-55
2022/11/19 08:31:34;;;;;;;8.00;5.87;;;;;;;-1.46;93.23;100855.06;4974199;28;20275;-55
2022/11/19 08:34:01;;;;;;;6.87;5.00;;;;;;;-1.53;93.29;100854.69;4977842;28;20324;-54
2022/11/19 08:36:29;;;;;;;6.33;4.73;;;;;;;-1.46;93.00;100849.03;4974696;28;20300;-54
2022/11/19 08:38:57;;;;;;;7.63;4.50;;;;;;;-1.32;92.98;100853.19;4975329;28;20252;-56
2022/11/19 08:44:09;;;;;;;5.30;4.50;;;;;;;-1.05;91.54;100855.31;4968476;28;20715;-55
2022/11/19 08:46:37;;;;;;;5.37;4.63;;;;;;;-0.94;89.26;100850.69;4973473;28;20316;-56
2022/11/19 08:49:04;;;;;;;5.37;4.67;;;;;;;-0.98;88.20;100842.78;4978166;28;20246;-56
2022/11/19 08:51:32;;;;;;;4.93;4.40;;;;;;;-0.97;88.08;100848.81;4976175;28;20279;-54
2022/11/19 08:53:59;;;;;;;5.77;4.13;;;;;;;-0.97;87.55;100846.25;4977496;28;20648;-57
2022/11/19 08:56:27;;;;;;;6.17;4.77;;;;;;;-0.93;87.84;100847.28;4967864;28;20242;-54
2022/11/19 08:58:55;;;;;;;7.53;4.80;;;;;;;-0.86;86.40;100839.03;4977115;28;20240;-55
2022/11/19 09:01:22;;;;;;;5.50;5.00;;;;;;;-0.79;85.64;100849.69;4976324;28;20303;-55
2022/11/19 09:03:49;;;;;;;4.53;3.73;;;;;;;-0.82;84.76;100843.50;4979499;28;20309;-56
2022/11/19 09:06:17;;;;;;;5.27;4.30;;;;;;;-0.85;85.06;100848.50;4976679;28;20636;-55
2022/11/19 09:08:46;;;;;;;5.90;4.97;;;;;;;-0.98;84.82;100855.69;4974468;28;20316;-55
2022/11/19 09:11:15;;;;;;;6.60;4.67;;;;;;;-0.99;84.88;100855.59;4982010;28;20311;-54
2022/11/19 09:13:42;;;;;;;5.07;4.17;;;;;;;-0.89;86.07;100854.34;4981450;28;20236;-55
2022/11/19 09:16:11;;;;;;;5.57;4.37;;;;;;;-0.92;86.31;100856.75;4980566;28;20762;-56
2022/11/19 09:18:40;;;;;;;7.83;4.20;;;;;;;-0.87;86.37;100850.16;4981109;28;20267;-55
2022/11/19 09:21:08;;;;;;;5.17;4.07;;;;;;;-0.83;85.95;100864.94;4982570;28;20285;-54
2022/11/19 09:23:37;;;;;;;5.03;4.30;;;;;;;-0.73;86.22;100859.41;4976135;28;20236;-56
2022/11/19 09:26:07;;;;;;;4.90;3.87;;;;;;;-0.68;88.15;100857.91;4984268;28;20225;-56
2022/11/19 09:28:35;;;;;;;5.47;3.80;;;;;;;-0.63;86.63;100866.75;4975280;28;20236;-56
2022/11/19 09:31:04;;;;;;;6.03;4.37;;;;;;;-0.68;86.67;100862.19;4981462;28;20237;-56
2022/11/19 09:33:32;;;;;;;5.20;4.53;;;;;;;-0.56;86.48;100866.22;4980726;28;20229;-55
2022/11/19 09:35:59;;;;;;;4.93;4.47;;;;;;;-0.46;86.02;100861.47;4978533;28;20324;-55
2022/11/19 09:38:26;;;;;;;5.10;4.23;;;;;;;-0.50;84.84;100860.44;4982093;28;20245;-54
2022/11/19 09:40:54;;;;;;;5.10;4.27;;;;;;;-0.45;85.85;100850.34;4979804;28;20232;-55
2022/11/19 09:43:30;;;;;;;4.47;4.07;;;;;;;-0.32;85.42;100857.81;4980033;28;20255;-55
2022/11/19 09:46:00;;;;;;;6.37;4.63;;;;;;;-0.21;85.44;100851.44;4980582;28;20247;-56
2022/11/19 09:48:33;;;;;;;4.03;3.70;;;;;;;-0.13;82.49;100844.91;4975698;28;20782;-56
2022/11/19 09:51:03;;;;;;;4.77;3.80;;;;;;;0.07;79.93;100837.13;4980102;28;20272;-55
2022/11/19 09:53:33;;;;;;;6.83;4.60;;;;;;;-0.05;78.95;100838.38;4981554;28;20337;-55
2022/11/19 09:56:00;;;;;;;4.23;3.83;;;;;;;-0.01;77.64;100842.84;4971676;28;20293;-55
2022/11/19 09:58:34;;;;;;;4.57;3.30;;;;;;;0.11;76.88;100839.06;4976169;28;21326;-55
2022/11/19 10:01:00;;;;;;;6.67;3.33;;;;;;;0.07;76.84;100837.13;4974434;28;20774;-56
2022/11/19 10:03:28;;;;;;;4.07;3.47;;;;;;;0.16;75.44;100833.25;4972647;28;20692;-55
2022/11/19 10:06:05;;;;;;;4.70;3.50;;;;;;;0.13;75.92;100833.13;4963097;28;20307;-55
2022/11/19 10:08:46;;;;;;;4.90;3.70;;;;;;;0.12;75.05;100820.16;4975498;28;20320;-57
2022/11/19 10:11:27;;;;;;;3.93;3.47;;;;;;;0.25;73.56;100817.28;4980954;28;20226;-54
2022/11/19 10:14:04;;;;;;;3.77;3.30;;;;;;;0.16;72.47;100816.88;4977968;28;20225;-55
2022/11/19 10:16:40;;;;;;;3.33;3.03;;;;;;;0.10;75.24;100814.03;4983558;28;20282;-55
2022/11/19 10:19:16;;;;;;;3.33;3.00;;;;;;;0.11;73.33;100813.25;4982126;28;20319;-56
2022/11/19 10:21:48;;;;;;;3.67;2.60;;;;;;;0.18;73.56;100810.97;4981003;28;20313;-53
2022/11/19 10:24:17;;;;;;;3.37;3.07;;;;;;;0.10;72.98;100819.19;4979219;28;20660;-57
2022/11/19 10:26:47;;;;;;;2.80;2.60;;;;;;;0.17;74.61;100811.78;4978343;28;20737;-54
2022/11/19 10:29:17;;;;;;;3.93;3.00;;;;;;;0.24;72.54;100818.06;4980844;28;20237;-55
2022/11/19 10:31:45;;;;;;;3.67;3.10;;;;;;;0.20;73.91;100808.44;4976901;28;20237;-55
2022/11/19 10:34:17;;;;;;;4.53;3.40;;;;;;;0.28;71.97;100812.25;4979754;28;20263;-56
2022/11/19 10:36:47;;;;;;;4.90;4.13;;;;;;;0.29;73.22;100814.00;4978951;28;20238;-55
2022/11/19 10:39:18;;;;;;;5.00;3.07;;;;;;;0.30;73.08;100808.00;4978910;28;20654;-55
2022/11/19 10:41:49;;;;;;;4.17;3.77;;;;;;;0.30;73.76;100804.56;4981056;28;20236;-55
2022/11/19 10:44:39;;;;;;;4.30;3.90;;;;;;;0.37;73.27;100799.69;4980702;28;20760;-56
2022/11/19 10:47:07;;;;;;;3.27;2.97;;;;;;;0.38;73.33;100783.38;4987909;28;20600;-55
2022/11/19 10:49:39;;;;;;;3.80;3.37;;;;;;;0.27;73.76;100782.06;4979996;28;20237;-55
2022/11/19 10:52:06;;;;;;;8.27;4.67;;;;;;;0.27;73.66;100781.19;4974173;28;20233;-54
2022/11/19 10:54:33;;;;;;;4.17;3.77;;;;;;;0.28;73.71;100786.44;4981870;28;20226;-55
2022/11/19 10:57:01;;;;;;;4.40;3.40;;;;;;;0.41;74.28;100777.47;4981011;28;20739;-55
2022/11/19 10:59:31;;;;;;;3.50;3.20;;;;;;;0.43;72.84;100775.84;4977692;28;20241;-55
2022/11/19 11:02:02;;;;;;;3.67;3.13;;;;;;;0.42;73.30;100777.53;4975675;28;20271;-55
2022/11/19 11:04:29;;;;;;;5.47;3.87;;;;;;;0.43;73.62;100770.66;4972303;28;20245;-55
2022/11/19 11:06:58;;;;;;;4.57;3.97;;;;;;;0.41;74.54;100767.13;4982771;28;20783;-54
2022/11/19 11:09:30;;;;;;;4.77;3.73;;;;;;;0.28;74.92;100763.19;4983684;28;20239;-55
2022/11/19 11:14:54;;;;;;;4.30;3.70;;;;;;;0.52;79.77;100760.69;4981892;28;20243;-55
2022/11/19 11:17:24;;;;;;;4.90;4.40;;;;;;;0.50;77.37;100766.63;4971581;28;20550;-55
2022/11/19 11:19:59;;;;;;;5.57;4.40;;;;;;;0.48;77.59;100763.97;4964579;28;20245;-54
2022/11/19 11:22:26;;;;;;;4.93;4.47;;;;;;;0.40;78.84;100755.94;4978261;28;20738;-54
2022/11/19 11:24:54;;;;;;;4.73;4.13;;;;;;;0.60;79.11;100742.94;4974741;28;20225;-54
2022/11/19 11:27:22;;;;;;;6.17;4.30;;;;;;;0.59;79.09;100742.03;4973235;28;20236;-56
2022/11/19 11:30:04;;;;;;;4.50;3.80;;;;;;;0.86;78.60;100731.00;4968869;28;20291;-55
2022/11/19 11:32:31;;;;;;;5.43;4.50;;;;;;;1.04;79.73;100725.66;4971849;28;20324;-53
2022/11/19 11:34:58;;;;;;;4.33;3.93;;;;;;;1.02;78.40;100711.78;4978629;28;20240;-54
2022/11/19 11:37:26;;;;;;;4.03;3.53;;;;;;;1.11;78.79;100717.28;4973695;28;20335;-54
2022/11/19 11:39:55;;;;;;;5.77;3.80;;;;;;;1.20;79.83;100717.63;4980720;28;20738;-54
2022/11/19 11:42:25;;;;;;;4.70;4.23;;;;;;;1.22;79.41;100726.31;4975003;28;20879;-54
2022/11/19 11:44:55;;;;;;;5.00;4.50;;;;;;;1.31;78.74;100716.31;4972200;28;20244;-54
2022/11/19 11:47:24;;;;;;;4.23;3.83;;;;;;;1.32;78.93;100712.03;4973751;28;20612;-54